createdAt,value
2022-10-09T00:00:01.083Z,92.79
2022-10-09T00:02:28.552Z,93.38
2022-10-09T00:04:56.098Z,94.21
2022-10-09T00:07:25.100Z,94.86
2022-10-09T00:09:52.509Z,94.27
2022-10-09T00:12:19.924Z,94.08
2022-10-09T00:14:47.551Z,93.43
2022-10-09T00:17:14.978Z,93.43
2022-10-09T00:19:42.436Z,93.76
2022-10-09T00:22:09.849Z,94.34
2022-10-09T00:24:38.689Z,93.80
2022-10-09T00:27:06.130Z,93.71
2022-10-09T00:29:33.554Z,93.69
2022-10-09T00:32:00.992Z,93.29
2022-10-09T00:34:28.421Z,92.94
2022-10-09T00:36:55.876Z,93.85
2022-10-09T00:39:23.328Z,92.97
2022-10-09T00:41:52.068Z,93.45
2022-10-09T00:44:49.209Z,94.46
2022-10-09T00:47:21.067Z,94.48
2022-10-09T00:49:50.599Z,94.93
2022-10-09T00:52:18.420Z,94.86
2022-10-09T00:54:45.991Z,95.42
2022-10-09T00:57:15.053Z,95.93
2022-10-09T00:59:42.508Z,95.79
2022-10-09T01:02:09.988Z,95.58
2022-10-09T01:04:37.435Z,95.94
2022-10-09T01:07:19.229Z,96.14
2022-10-09T01:09:56.500Z,95.95
2022-10-09T01:12:34.768Z,96.01
2022-10-09T01:15:10.328Z,95.21
2022-10-09T01:17:44.863Z,94.52
2022-10-09T01:20:27.017Z,94.89
2022-10-09T01:23:12.039Z,94.65
2022-10-09T01:25:51.524Z,94.73
2022-10-09T01:28:23.930Z,94.47
2022-10-09T01:30:51.767Z,94.58
2022-10-09T01:33:19.440Z,94.95
2022-10-09T01:35:48.058Z,95.88
2022-10-09T01:38:17.568Z,95.66
2022-10-09T01:40:45.054Z,95.08
2022-10-09T01:43:12.736Z,95.06
2022-10-09T01:45:44.550Z,94.71
2022-10-09T01:48:17.451Z,94.53
2022-10-09T01:50:47.252Z,94.41
2022-10-09T01:53:19.408Z,95.03
2022-10-09T01:55:51.829Z,95.18
2022-10-09T01:58:22.877Z,95.03
2022-10-09T02:00:57.815Z,94.92
2022-10-09T02:06:15.746Z,94.79
2022-10-09T02:08:47.241Z,94.46
2022-10-09T02:11:15.663Z,94.38
2022-10-09T02:13:44.422Z,94.44
2022-10-09T02:16:18.805Z,94.65
2022-10-09T02:18:49.343Z,94.55
2022-10-09T02:21:23.165Z,95.15
2022-10-09T02:23:51.934Z,95.12
2022-10-09T02:26:20.205Z,95.55
2022-10-09T02:28:47.841Z,95.67
2022-10-09T02:31:23.862Z,95.79
2022-10-09T02:33:56.214Z,95.61
2022-10-09T02:36:23.645Z,95.80
2022-10-09T02:38:51.091Z,95.80
2022-10-09T02:41:18.549Z,95.68
2022-10-09T02:43:46.046Z,96.27
2022-10-09T02:46:13.618Z,96.60
2022-10-09T02:48:42.465Z,96.39
2022-10-09T02:51:10.027Z,96.28
2022-10-09T02:53:37.522Z,96.46
2022-10-09T02:56:05.161Z,96.60
2022-10-09T02:58:33.289Z,96.78
2022-10-09T03:01:00.983Z,96.84
2022-10-09T03:03:28.478Z,96.50
2022-10-09T03:06:02.442Z,96.24
2022-10-09T03:08:29.973Z,96.54
2022-10-09T03:10:57.445Z,96.81
2022-10-09T03:13:25.085Z,96.59
2022-10-09T03:15:52.553Z,96.21
2022-10-09T03:18:20.518Z,96.20
2022-10-09T03:20:48.288Z,95.74
2022-10-09T03:23:17.094Z,95.79
2022-10-09T03:25:44.528Z,96.08
2022-10-09T03:28:11.979Z,96.04
2022-10-09T03:30:41.640Z,95.26
2022-10-09T03:33:09.065Z,95.25
2022-10-09T03:35:36.496Z,95.50
2022-10-09T03:38:03.946Z,95.29
2022-10-09T03:40:32.755Z,95.15
2022-10-09T03:43:00.203Z,95.92
2022-10-09T03:45:27.635Z,96.02
2022-10-09T03:47:55.042Z,96.26
2022-10-09T03:50:22.539Z,96.15
2022-10-09T03:52:50.309Z,96.05
2022-10-09T03:55:18.309Z,96.13
2022-10-09T03:57:47.092Z,95.81
2022-10-09T04:00:15.554Z,95.93
2022-10-09T04:02:43.033Z,96.08
2022-10-09T04:05:10.502Z,95.99
2022-10-09T04:07:37.922Z,95.84
2022-10-09T04:10:06.321Z,95.49
2022-10-09T04:12:34.130Z,95.75
2022-10-09T04:15:03.238Z,95.93
2022-10-09T04:17:30.835Z,96.30
2022-10-09T04:19:58.240Z,96.14
2022-10-09T04:22:25.702Z,96.12
2022-10-09T04:24:53.136Z,96.08
2022-10-09T04:27:20.802Z,96.31
2022-10-09T04:29:48.196Z,96.82
2022-10-09T04:32:16.924Z,97.00
2022-10-09T04:34:44.366Z,97.12
2022-10-09T04:37:11.773Z,97.22
2022-10-09T04:39:39.190Z,97.03
2022-10-09T04:42:07.095Z,97.15
2022-10-09T04:44:34.525Z,97.55
2022-10-09T04:47:01.921Z,97.34
2022-10-09T04:49:30.690Z,97.18
2022-10-09T04:51:58.111Z,97.34
2022-10-09T04:54:25.733Z,97.47
2022-10-09T04:56:53.159Z,97.38
2022-10-09T04:59:20.608Z,97.29
2022-10-09T05:01:48.138Z,97.71
2022-10-09T05:04:15.624Z,97.94
2022-10-09T05:06:44.429Z,97.73
2022-10-09T05:09:11.879Z,97.77
2022-10-09T05:11:42.492Z,97.84
2022-10-09T05:14:10.513Z,97.49
2022-10-09T05:16:55.266Z,97.25
2022-10-09T05:19:25.708Z,97.12
2022-10-09T05:21:54.449Z,96.91
2022-10-09T05:24:22.029Z,96.92
2022-10-09T05:26:49.453Z,97.53
2022-10-09T05:29:16.872Z,97.21
2022-10-09T05:31:49.092Z,97.24
2022-10-09T05:34:16.942Z,97.81
2022-10-09T05:36:44.372Z,97.93
2022-10-09T05:39:13.211Z,98.08
2022-10-09T05:41:40.681Z,97.92
2022-10-09T05:44:08.805Z,97.54
2022-10-09T05:46:36.247Z,97.34
2022-10-09T05:49:08.372Z,96.99
2022-10-09T05:51:38.027Z,97.11
2022-10-09T05:54:07.087Z,97.39
2022-10-09T05:56:37.498Z,97.55
2022-10-09T05:59:07.007Z,98.10
2022-10-09T06:01:36.794Z,97.99
2022-10-09T06:04:09.750Z,97.67
2022-10-09T06:06:38.835Z,97.55
2022-10-09T06:09:07.650Z,97.97
2022-10-09T06:11:38.175Z,98.13
2022-10-09T06:14:07.546Z,98.81
2022-10-09T06:16:37.287Z,98.47
2022-10-09T06:19:06.338Z,98.61
2022-10-09T06:21:34.787Z,98.39
2022-10-09T06:24:03.791Z,98.27
2022-10-09T06:26:31.734Z,98.00
2022-10-09T06:29:02.795Z,97.66
2022-10-09T06:31:32.271Z,98.15
2022-10-09T06:34:00.705Z,98.27
2022-10-09T06:36:30.327Z,98.59
2022-10-09T06:39:00.103Z,98.57
2022-10-09T06:41:29.287Z,98.39
2022-10-09T06:43:58.723Z,97.24
2022-10-09T06:46:29.611Z,97.02
2022-10-09T06:48:57.224Z,97.73
2022-10-09T06:51:25.218Z,98.13
2022-10-09T06:53:54.175Z,97.78
2022-10-09T06:56:23.516Z,97.63
2022-10-09T06:58:51.152Z,97.13
2022-10-09T07:01:20.531Z,97.18
2022-10-09T07:03:54.272Z,96.77
2022-10-09T07:06:23.167Z,96.37
2022-10-09T07:08:52.527Z,95.66
2022-10-09T07:11:21.463Z,95.34
2022-10-09T07:13:50.781Z,94.53
2022-10-09T07:16:21.663Z,93.57
2022-10-09T07:18:50.851Z,93.37
2022-10-09T07:21:18.701Z,93.68
2022-10-09T07:23:46.496Z,93.38
2022-10-09T07:26:17.663Z,92.68
2022-10-09T07:28:46.499Z,92.41
2022-10-09T07:31:14.632Z,91.96
2022-10-09T07:33:42.593Z,91.15
2022-10-09T07:36:11.907Z,90.08
2022-10-09T07:38:39.292Z,89.75
2022-10-09T07:41:09.035Z,89.54
2022-10-09T07:43:37.499Z,89.05
2022-10-09T07:46:06.502Z,88.28
2022-10-09T07:48:35.074Z,88.21
2022-10-09T07:51:09.243Z,87.78
2022-10-09T07:53:39.067Z,87.07
2022-10-09T07:56:07.532Z,86.72
2022-10-09T07:58:35.093Z,85.89
2022-10-09T08:01:06.892Z,86.10
2022-10-09T08:03:34.723Z,85.07
2022-10-09T08:06:02.410Z,84.72
2022-10-09T08:08:29.884Z,84.25
2022-10-09T08:10:58.730Z,84.10
2022-10-09T08:13:26.244Z,84.03
2022-10-09T08:15:53.724Z,84.04
2022-10-09T08:18:21.207Z,83.15
2022-10-09T08:20:57.575Z,81.71
2022-10-09T08:23:25.044Z,80.05
2022-10-09T08:25:52.496Z,80.35
2022-10-09T08:28:21.757Z,81.10
2022-10-09T08:30:49.382Z,78.96
2022-10-09T08:33:20.164Z,78.18
2022-10-09T08:35:47.739Z,78.00
2022-10-09T08:38:37.498Z,76.16
2022-10-09T08:41:07.297Z,76.79
2022-10-09T08:43:41.311Z,77.31
2022-10-09T08:46:20.605Z,75.59
2022-10-09T08:48:51.441Z,76.72
2022-10-09T08:51:24.132Z,76.14
2022-10-09T08:53:57.174Z,75.57
2022-10-09T08:56:27.343Z,74.90
2022-10-09T08:58:56.663Z,75.28
2022-10-09T09:01:33.840Z,74.41
2022-10-09T09:04:25.856Z,73.83
2022-10-09T09:07:01.389Z,74.21
2022-10-09T09:09:41.197Z,73.43
2022-10-09T09:12:15.608Z,71.92
2022-10-09T09:14:58.700Z,71.24
2022-10-09T09:17:35.725Z,71.04
2022-10-09T09:20:16.129Z,72.29
2022-10-09T09:22:48.223Z,71.47
2022-10-09T09:25:21.009Z,72.48
2022-10-09T09:27:48.640Z,71.62
2022-10-09T09:30:22.448Z,70.97
2022-10-09T09:32:56.575Z,71.45
2022-10-09T09:35:33.247Z,70.57
2022-10-09T09:38:00.891Z,69.65
2022-10-09T09:40:38.152Z,69.76
2022-10-09T09:43:15.674Z,68.22
2022-10-09T09:45:45.512Z,68.32
2022-10-09T09:48:16.884Z,68.06
2022-10-09T09:50:53.040Z,68.41
2022-10-09T09:53:29.907Z,67.26
2022-10-09T09:55:58.044Z,67.82
2022-10-09T09:58:33.847Z,67.25
2022-10-09T10:01:06.231Z,65.26
2022-10-09T10:03:34.696Z,64.99
2022-10-09T10:06:02.255Z,65.69
2022-10-09T10:08:31.039Z,64.99
2022-10-09T10:11:00.796Z,67.27
2022-10-09T10:13:34.896Z,64.47
2022-10-09T10:16:04.352Z,65.90
2022-10-09T10:18:39.117Z,63.67
2022-10-09T10:21:11.215Z,64.21
2022-10-09T10:23:41.653Z,63.98
2022-10-09T10:26:18.415Z,64.08
2022-10-09T10:28:50.419Z,64.40
2022-10-09T10:31:36.419Z,63.74
2022-10-09T10:34:05.978Z,64.18
2022-10-09T10:36:34.821Z,62.65
2022-10-09T10:39:09.307Z,62.20
2022-10-09T10:41:45.355Z,60.60
2022-10-09T10:44:22.788Z,58.91
2022-10-09T10:46:55.821Z,60.23
2022-10-09T10:49:24.098Z,59.57
2022-10-09T10:52:06.668Z,60.72
2022-10-09T10:54:39.822Z,58.04
2022-10-09T10:57:16.204Z,57.73
2022-10-09T10:59:57.799Z,56.86
2022-10-09T11:02:53.714Z,55.61
2022-10-09T11:05:28.607Z,56.08
2022-10-09T11:08:11.876Z,55.61
2022-10-09T11:10:49.438Z,55.37
2022-10-09T11:13:23.842Z,54.81
2022-10-09T11:16:00.752Z,55.06
2022-10-09T11:18:45.737Z,55.20
2022-10-09T11:21:26.888Z,54.61
2022-10-09T11:24:13.793Z,53.71
2022-10-09T11:26:48.490Z,53.27
2022-10-09T11:29:20.862Z,53.34
2022-10-09T11:31:53.622Z,53.49
2022-10-09T11:34:27.573Z,52.42
2022-10-09T11:36:56.597Z,53.44
2022-10-09T11:39:28.575Z,53.81
2022-10-09T11:41:56.697Z,54.62
2022-10-09T11:44:36.865Z,55.13
2022-10-09T11:47:13.070Z,55.35
2022-10-09T11:49:57.535Z,55.51
2022-10-09T11:52:36.334Z,56.16
2022-10-09T11:55:18.541Z,53.71
2022-10-09T11:57:46.079Z,54.10
2022-10-09T12:00:14.187Z,54.19
2022-10-09T12:02:43.818Z,54.47
2022-10-09T12:05:35.762Z,55.04
2022-10-09T12:08:15.365Z,53.68
2022-10-09T12:10:52.152Z,52.64
2022-10-09T12:13:41.947Z,51.91
2022-10-09T12:16:12.020Z,52.00
2022-10-09T12:18:44.439Z,52.83
2022-10-09T12:21:25.552Z,53.48
2022-10-09T12:23:54.032Z,54.58
2022-10-09T12:26:24.625Z,54.77
2022-10-09T12:28:54.640Z,54.29
2022-10-09T12:31:25.583Z,53.37
2022-10-09T12:33:57.637Z,53.14
2022-10-09T12:36:28.414Z,53.67
2022-10-09T12:38:56.336Z,53.62
2022-10-09T12:41:28.003Z,54.41
2022-10-09T12:43:57.233Z,54.41
2022-10-09T12:46:31.323Z,55.61
2022-10-09T12:49:00.848Z,55.08
2022-10-09T12:51:31.878Z,54.57
2022-10-09T12:53:59.470Z,54.70
2022-10-09T12:56:33.682Z,56.27
2022-10-09T12:59:02.680Z,54.23
2022-10-09T13:01:30.995Z,54.49
2022-10-09T13:04:00.415Z,54.91
2022-10-09T13:06:34.216Z,55.01
2022-10-09T13:09:05.158Z,54.11
2022-10-09T13:11:35.347Z,54.16
2022-10-09T13:14:03.131Z,54.84
2022-10-09T13:16:41.385Z,55.47
2022-10-09T13:19:22.511Z,52.81
2022-10-09T13:22:18.914Z,52.80
2022-10-09T13:24:46.734Z,53.13
2022-10-09T13:27:15.433Z,54.17
2022-10-09T13:29:43.497Z,53.82
2022-10-09T13:32:13.411Z,53.64
2022-10-09T13:34:41.251Z,53.83
2022-10-09T13:37:11.501Z,52.38
2022-10-09T13:39:38.959Z,53.24
2022-10-09T13:42:07.082Z,51.66
2022-10-09T13:44:34.501Z,51.80
2022-10-09T13:47:02.440Z,50.04
2022-10-09T13:49:29.897Z,50.33
2022-10-09T13:51:57.303Z,49.95
2022-10-09T13:54:26.625Z,50.37
2022-10-09T13:56:54.465Z,49.85
2022-10-09T13:59:21.955Z,50.74
2022-10-09T14:01:49.441Z,50.07
2022-10-09T14:04:17.105Z,48.63
2022-10-09T14:06:44.527Z,49.78
2022-10-09T14:09:11.924Z,47.21
2022-10-09T14:11:40.723Z,43.74
2022-10-09T14:14:08.184Z,41.92
2022-10-09T14:16:36.640Z,40.76
2022-10-09T14:19:05.383Z,41.29
2022-10-09T14:21:33.897Z,40.30
2022-10-09T14:24:03.264Z,39.93
2022-10-09T14:26:31.000Z,38.57
2022-10-09T14:29:01.737Z,40.89
2022-10-09T14:31:29.917Z,40.06
2022-10-09T14:33:59.622Z,39.17
2022-10-09T14:36:27.873Z,38.32
2022-10-09T14:38:55.588Z,38.13
2022-10-09T14:41:23.412Z,38.89
2022-10-09T14:43:56.639Z,41.36
2022-10-09T14:46:27.000Z,41.86
2022-10-09T14:48:56.266Z,41.40
2022-10-09T14:51:25.770Z,39.66
2022-10-09T14:53:56.835Z,40.22
2022-10-09T14:56:24.465Z,39.90
2022-10-09T14:58:51.898Z,39.67
2022-10-09T15:01:21.047Z,40.65
2022-10-09T15:03:49.988Z,38.68
2022-10-09T15:06:23.608Z,40.37
2022-10-09T15:08:52.350Z,41.66
2022-10-09T15:11:19.796Z,42.49
2022-10-09T15:13:47.232Z,42.32
2022-10-09T15:16:15.903Z,42.11
2022-10-09T15:18:44.231Z,42.92
2022-10-09T15:21:15.638Z,41.31
2022-10-09T15:23:43.709Z,40.21
2022-10-09T15:26:11.859Z,40.44
2022-10-09T15:28:40.679Z,41.64
2022-10-09T15:31:17.284Z,41.31
2022-10-09T15:33:44.685Z,42.82
2022-10-09T15:36:12.079Z,42.08
2022-10-09T15:38:41.089Z,43.19
2022-10-09T15:41:08.512Z,42.80
2022-10-09T15:43:38.972Z,43.00
2022-10-09T15:46:08.552Z,44.46
2022-10-09T15:48:36.019Z,44.31
2022-10-09T15:51:06.828Z,44.30
2022-10-09T15:53:34.278Z,43.58
2022-10-09T15:56:06.466Z,45.52
2022-10-09T15:58:34.006Z,45.21
2022-10-09T16:01:04.430Z,45.41
2022-10-09T16:03:36.441Z,45.44
2022-10-09T16:06:07.210Z,45.54
2022-10-09T16:08:34.901Z,47.19
2022-10-09T16:11:10.140Z,48.02
2022-10-09T16:13:39.728Z,47.75
2022-10-09T16:16:09.394Z,47.95
2022-10-09T16:18:37.388Z,48.54
2022-10-09T16:21:06.332Z,49.09
2022-10-09T16:23:33.943Z,48.77
2022-10-09T16:26:04.156Z,50.89
2022-10-09T16:28:33.560Z,52.62
2022-10-09T16:31:01.148Z,54.17
2022-10-09T16:33:28.959Z,55.49
2022-10-09T16:36:07.416Z,56.31
2022-10-09T16:38:34.865Z,57.38
2022-10-09T16:41:02.785Z,58.55
2022-10-09T16:43:34.857Z,59.67
2022-10-09T16:46:13.653Z,60.77
2022-10-09T16:48:41.064Z,61.61
2022-10-09T16:51:10.006Z,61.78
2022-10-09T16:53:37.491Z,62.56
2022-10-09T16:56:13.973Z,63.56
2022-10-09T16:58:43.574Z,64.38
2022-10-09T17:01:12.315Z,64.73
2022-10-09T17:03:41.166Z,65.62
2022-10-09T17:06:09.956Z,65.80
2022-10-09T17:08:37.396Z,65.92
2022-10-09T17:11:08.339Z,66.67
2022-10-09T17:13:36.141Z,67.25
2022-10-09T17:16:07.283Z,67.70
2022-10-09T17:18:35.839Z,68.12
2022-10-09T17:21:04.033Z,68.32
2022-10-09T17:23:31.482Z,68.74
2022-10-09T17:25:59.022Z,68.95
2022-10-09T17:28:26.547Z,69.70
2022-10-09T17:30:54.035Z,70.08
2022-10-09T17:33:22.807Z,69.94
2022-10-09T17:35:50.331Z,70.45
2022-10-09T17:38:17.784Z,70.59
2022-10-09T17:40:45.204Z,70.63
2022-10-09T17:43:12.652Z,71.20
2022-10-09T17:45:40.920Z,71.24
2022-10-09T17:48:09.771Z,71.53
2022-10-09T17:50:38.526Z,71.83
2022-10-09T17:53:06.221Z,71.97
2022-10-09T17:55:38.701Z,72.90
2022-10-09T17:58:06.160Z,73.03
2022-10-09T18:00:33.600Z,74.20
2022-10-09T18:03:01.008Z,74.30
2022-10-09T18:05:28.429Z,73.94
2022-10-09T18:07:57.200Z,74.25
2022-10-09T18:10:25.096Z,73.95
2022-10-09T18:12:52.526Z,73.97
2022-10-09T18:15:19.931Z,74.07
2022-10-09T18:17:47.625Z,74.04
2022-10-09T18:20:15.504Z,73.74
2022-10-09T18:22:42.969Z,74.10
2022-10-09T18:25:11.849Z,74.20
2022-10-09T18:27:39.313Z,73.92
2022-10-09T18:30:07.670Z,74.93
2022-10-09T18:32:35.112Z,75.41
2022-10-09T18:35:03.058Z,75.30
2022-10-09T18:37:30.526Z,75.15
2022-10-09T18:39:57.996Z,75.97
2022-10-09T18:42:26.899Z,76.84
2022-10-09T18:44:54.314Z,76.88
2022-10-09T18:47:28.197Z,77.50
2022-10-09T18:49:59.650Z,77.72
2022-10-09T18:52:27.242Z,77.70
2022-10-09T18:54:56.000Z,77.92
2022-10-09T18:57:25.796Z,77.71
2022-10-09T18:59:56.454Z,77.60
2022-10-09T19:02:26.438Z,77.71
2022-10-09T19:04:53.972Z,78.04
2022-10-09T19:07:21.477Z,78.22
2022-10-09T19:09:53.592Z,77.98
2022-10-09T19:12:23.885Z,78.66
2022-10-09T19:14:51.313Z,78.87
2022-10-09T19:17:20.532Z,79.27
2022-10-09T19:19:48.092Z,79.49
2022-10-09T19:22:19.028Z,79.29
2022-10-09T19:24:48.923Z,79.32
2022-10-09T19:27:16.328Z,79.52
2022-10-09T19:29:43.760Z,79.42
2022-10-09T19:32:11.467Z,79.20
2022-10-09T19:34:40.234Z,79.70
2022-10-09T19:37:07.648Z,79.58
2022-10-09T19:39:35.077Z,79.98
2022-10-09T19:42:02.535Z,79.81
2022-10-09T19:44:29.968Z,79.32
2022-10-09T19:46:57.497Z,79.17
2022-10-09T19:49:24.909Z,78.66
2022-10-09T19:51:53.664Z,79.16
2022-10-09T19:54:21.072Z,79.07
2022-10-09T19:56:48.533Z,79.02
2022-10-09T19:59:15.989Z,78.93
2022-10-09T20:01:43.402Z,79.06
2022-10-09T20:04:11.948Z,79.18
2022-10-09T20:06:40.785Z,79.24
2022-10-09T20:09:11.274Z,79.16
2022-10-09T20:11:39.215Z,79.63
2022-10-09T20:14:06.838Z,79.15
2022-10-09T20:16:34.558Z,79.46
2022-10-09T20:19:02.934Z,80.15
2022-10-09T20:21:32.008Z,79.99
2022-10-09T20:24:01.053Z,80.37
2022-10-09T20:26:31.347Z,81.43
2022-10-09T20:28:58.768Z,81.96
2022-10-09T20:31:27.657Z,82.37
2022-10-09T20:33:56.182Z,82.66
2022-10-09T20:36:27.149Z,82.81
2022-10-09T20:38:58.368Z,82.71
2022-10-09T20:41:27.527Z,82.42
2022-10-09T20:43:57.552Z,83.17
2022-10-09T20:46:27.858Z,83.05
2022-10-09T20:48:55.654Z,83.30
2022-10-09T20:51:23.551Z,83.17
2022-10-09T20:53:53.109Z,83.80
2022-10-09T20:56:20.534Z,83.91
2022-10-09T20:58:47.936Z,84.05
2022-10-09T21:01:17.104Z,84.45
2022-10-09T21:03:45.294Z,84.32
2022-10-09T21:06:15.158Z,84.49
2022-10-09T21:08:43.245Z,84.12
2022-10-09T21:11:16.213Z,83.95
2022-10-09T21:13:44.329Z,84.37
2022-10-09T21:16:13.560Z,84.18
2022-10-09T21:18:42.636Z,84.59
2022-10-09T21:21:11.778Z,84.63
2022-10-09T21:23:39.270Z,84.82
2022-10-09T21:26:12.631Z,84.72
2022-10-09T21:28:40.111Z,85.36
2022-10-09T21:31:12.136Z,85.87
2022-10-09T21:33:39.550Z,85.77
2022-10-09T21:36:13.816Z,85.86
2022-10-09T21:38:41.249Z,85.67
2022-10-09T21:41:08.675Z,85.78
2022-10-09T21:43:36.096Z,85.52
2022-10-09T21:46:03.524Z,85.88
2022-10-09T21:48:31.070Z,85.84
2022-10-09T21:50:58.467Z,85.89
2022-10-09T21:53:27.328Z,85.38
2022-10-09T21:55:54.748Z,85.80
2022-10-09T21:58:22.212Z,85.46
2022-10-09T22:00:56.112Z,85.32
2022-10-09T22:03:25.294Z,85.30
2022-10-09T22:05:52.924Z,85.36
2022-10-09T22:08:20.517Z,85.69
2022-10-09T22:10:49.938Z,85.75
2022-10-09T22:13:17.967Z,86.29
2022-10-09T22:15:50.780Z,85.72
2022-10-09T22:18:18.708Z,85.87
2022-10-09T22:20:47.836Z,85.60
2022-10-09T22:23:16.524Z,85.51
2022-10-09T22:25:43.976Z,85.97
2022-10-09T22:28:12.795Z,86.33
2022-10-09T22:30:40.195Z,87.28
2022-10-09T22:33:07.600Z,87.50
2022-10-09T22:35:35.065Z,87.10
2022-10-09T22:38:02.480Z,87.40
2022-10-09T22:40:29.901Z,87.21
2022-10-09T22:42:57.357Z,87.95
2022-10-09T22:45:26.099Z,88.01
2022-10-09T22:47:53.508Z,88.33
2022-10-09T22:50:20.950Z,88.21
2022-10-09T22:52:48.645Z,88.92
2022-10-09T22:55:16.285Z,88.64
2022-10-09T22:57:43.693Z,89.12
2022-10-09T23:00:12.678Z,88.33
2022-10-09T23:02:41.435Z,88.43
2022-10-09T23:05:09.504Z,88.03
2022-10-09T23:07:36.904Z,88.29
2022-10-09T23:10:04.955Z,88.84
2022-10-09T23:12:32.369Z,88.82
2022-10-09T23:14:59.796Z,89.02
2022-10-09T23:17:27.203Z,88.62
2022-10-09T23:19:55.956Z,88.62
2022-10-09T23:22:23.362Z,87.99
2022-10-09T23:24:50.791Z,88.27
2022-10-09T23:27:18.201Z,88.83
2022-10-09T23:29:45.617Z,89.25
2022-10-09T23:32:13.308Z,88.75
2022-10-09T23:34:40.752Z,89.00
2022-10-09T23:37:09.577Z,88.79
2022-10-09T23:39:37.032Z,88.87
2022-10-09T23:42:04.676Z,87.97
2022-10-09T23:44:32.079Z,88.26
2022-10-09T23:46:59.518Z,87.41
2022-10-09T23:49:26.953Z,87.42
2022-10-09T23:51:54.373Z,87.64
2022-10-09T23:54:23.140Z,87.86
2022-10-09T23:56:50.569Z,87.65
2022-10-09T23:59:17.979Z,87.66
